NCAR-RAP Real-Time Weather Data

Output produced by METARs form (14 October 2019  23:37 UTC)
found at http://weather.rap.ucar.edu/surface/
 
KOKC 142252Z 16012KT 10SM FEW150 FEW250 25/14 A2985 RMK AO2 SLP098 T02500144
KOKC 142152Z 16014G19KT 10SM FEW150 BKN250 26/13 A2984 RMK AO2 SLP096 T02610133
KOKC 142052Z 17010KT 10SM FEW150 BKN250 26/13 A2987 RMK AO2 SLP103 T02610133 56022
KOKC 141952Z 18013KT 10SM SCT150 BKN250 24/13 A2988 RMK AO2 SLP109 T02440128
KOKC 141852Z 15011KT 10SM SCT150 BKN250 24/13 A2990 RMK AO2 SLP115 T02440128
KOKC 141752Z 15011KT 10SM SCT150 BKN250 23/13 A2993 RMK AO2 SLP127 T02330128 10239 20106 58014
KOKC 141652Z 17010KT 10SM SCT180 BKN250 23/12 A2995 RMK AO2 SLP134 T02280122
KOKC 141552Z 16009KT 10SM SCT180 BKN250 18/12 A2997 RMK AO2 SLP142 T01830122
KOKC 141452Z 17011KT 10SM SCT200 BKN250 16/12 A2997 RMK AO2 SLP144 T01560117 53005
KOKC 141352Z 17012KT 10SM SCT200 BKN250 13/11 A2996 RMK AO2 SLP140 T01330106
KOKC 141252Z 16009KT 10SM SCT200 SCT250 12/10 A2996 RMK AO2 SLP139 T01220100
KOKC 141152Z 15006KT 10SM SCT250 11/09 A2996 RMK AO2 SLP139 T01060094 10133 20106 56003
KOKC 141052Z 14007KT 10SM SCT250 11/09 A2996 RMK AO2 SLP138 T01060089
KOKC 140952Z 15009KT 10SM FEW250 12/09 A2996 RMK AO2 SLP135 T01170089
KOKC 140852Z 14009KT 10SM FEW250 12/09 A2997 RMK AO2 SLP139 T01170089 58002
KOKC 140752Z 15006KT 10SM R35R/4000V6000FT FEW250 11/08 A2998 RMK AO2 SLP143 T01060083
KOKC 140652Z 14006KT 10SM R35R/3000V4000FT FEW250 11/08 A2999 RMK AO2 SLP146 T01110083
KOKC 140552Z 13007KT 10SM FEW250 13/09 A2997 RMK AO2 SLP141 T01330089 10200 20122 402500028 58000
KOKC 140452Z 13006KT 10SM FEW250 13/09 A2998 RMK AO2 SLP145 T01330089
KOKC 140352Z 12006KT 10SM CLR 14/09 A2998 RMK AO2 SLP147 T01390094
KOKC 140252Z 13007KT 10SM CLR 16/09 A2997 RMK AO2 SLP145 T01560094 51015
KOKC 140152Z 13007KT 10SM CLR 16/09 A2996 RMK AO2 SLP144 T01610089
KOKC 140052Z 11007KT 10SM CLR 16/08 A2995 RMK AO2 SLP141 T01610078
KOKC 132352Z 13007KT 10SM CLR 20/07 A2993 RMK AO2 SLP131 T02000072 10250 20200 53004
KOKC 132252Z 15007KT 10SM CLR 23/06 A2991 RMK AO2 SLP126 T02330061
KOKC 132152Z 17011KT 10SM CLR 24/06 A2991 RMK AO2 SLP125 T02440056
KOKC 132052Z 17008KT 140V210 10SM CLR 25/04 A2991 RMK AO2 SLP125 T02500044 56021
KOKC 131952Z 19009KT 10SM CLR 24/03 A2993 RMK AO2 SLP130 T02440033
KOKC 131852Z 17010KT 10SM CLR 23/03 A2996 RMK AO2 SLP140 T02330028
KOKC 131752Z 17007KT 10SM CLR 22/03 A2998 RMK AO2 SLP148 T02220033 10222 20028 58004
KOKC 131652Z 17009KT 10SM CLR 19/02 A2999 RMK AO2 SLP153 T01940022
KOKC 131552Z 19011KT 10SM CLR 18/02 A3000 RMK AO2 SLP155 T01780017
KOKC 131452Z 18008KT 10SM CLR 13/02 A2999 RMK AO2 SLP156 T01330017 53006
KOKC 131352Z 18007KT 10SM CLR 08/02 A2999 RMK AO2 SLP155 T00830017
KOKC 131252Z 17006KT 10SM CLR 04/00 A2997 RMK AO2 SLP152 T00390000
KOKC 131152Z 17005KT 10SM CLR 03/M01 A2998 RMK AO2 SLP152 T00281006 10044 20028 56001
KOKC 131052Z 16007KT 10SM CLR 03/M01 A2998 RMK AO2 SLP150 T00331011
KOKC 130952Z 16007KT 10SM CLR 04/M01 A2998 RMK AO2 SLP149 T00391011
KOKC 130852Z 17004KT 10SM CLR 03/M01 A2998 RMK AO2 SLP150 T00331006 58006
KOKC 130752Z 17004KT 10SM CLR 03/M01 A3000 RMK AO2 SLP155 T00331006
KOKC 130652Z 17007KT 10SM CLR 03/M01 A2999 RMK AO2 SLP156 T00331006
KOKC 130552Z 16006KT 10SM CLR 04/M01 A3000 RMK AO2 SLP157 T00391006 10128 20039 401891022 58006
KOKC 130452Z 16006KT 10SM CLR 06/M01 A3001 RMK AO2 SLP160 T00561011
KOKC 130352Z 16005KT 10SM CLR 06/M01 A3001 RMK AO2 SLP164 T00561011
KOKC 130252Z 17005KT 10SM CLR 07/M01 A3002 RMK AO2 SLP166 T00671011 56000
KOKC 130152Z 16007KT 10SM CLR 08/M02 A3002 RMK AO2 SLP169 T00831022
KOKC 130052Z 18008KT 10SM CLR 09/M03 A3001 RMK AO2 SLP168 T00941028
KOKC 122352Z 19006KT 10SM FEW200 13/M04 A3002 RMK AO2 SLP168 T01281044 10189 20128 56015